Time,TemperatureF,DewpointF,PressureIn,WindDirection,WindDirectionDegrees,WindSpeedMPH,WindSpeedGustMPH,Humidity,HourlyPrecipIn,Conditions,Clouds,dailyrainin,SoftwareType,DateUTC
2015-03-27 00:02:00,50.4,48.4,29.69,ENE,74,3.0,5.0,93,0.22,,,0.36,meteohub,2015-03-27 04:02:00,
2015-03-27 00:07:00,50.4,48.7,29.69,ENE,59,1.0,5.0,94,0.23,,,0.39,meteohub,2015-03-27 04:07:00,
2015-03-27 00:12:00,48.2,46.2,29.69,ENE,63,3.0,9.0,93,0.24,,,0.40,meteohub,2015-03-27 04:12:00,
2015-03-27 00:17:00,46.8,44.8,29.69,East,101,2.0,9.0,93,0.22,,,0.40,meteohub,2015-03-27 04:17:00,
2015-03-27 00:22:00,46.0,44.1,29.69,ENE,76,4.0,9.0,93,0.19,,,0.42,meteohub,2015-03-27 04:22:00,
2015-03-27 00:27:00,45.5,43.5,29.69,ENE,70,5.0,10.0,93,0.16,,,0.45,meteohub,2015-03-27 04:27:00,
2015-03-27 00:32:00,45.3,43.3,29.69,East,79,5.0,10.0,93,0.16,,,0.46,meteohub,2015-03-27 04:32:00,
2015-03-27 00:37:00,45.1,43.2,29.70,East,82,13.0,13.0,93,0.15,,,0.46,meteohub,2015-03-27 04:37:00,
2015-03-27 00:42:00,44.8,42.8,29.69,East,80,5.0,13.0,93,0.15,,,0.47,meteohub,2015-03-27 04:42:00,
2015-03-27 00:47:00,44.2,42.3,29.69,ENE,65,9.0,13.0,93,0.15,,,0.48,meteohub,2015-03-27 04:47:00,
2015-03-27 00:52:00,43.9,41.9,29.69,ENE,69,8.0,13.0,93,0.14,,,0.48,meteohub,2015-03-27 04:52:00,
2015-03-27 00:57:00,43.5,41.7,29.69,ENE,74,7.0,13.0,93,0.12,,,0.48,meteohub,2015-03-27 04:57:00,
2015-03-27 01:02:00,43.2,41.4,29.69,East,93,8.0,13.0,93,0.11,,,0.49,meteohub,2015-03-27 05:02:00,
2015-03-27 01:07:00,43.0,41.2,29.69,ESE,103,8.0,14.0,93,0.10,,,0.49,meteohub,2015-03-27 05:07:00,
2015-03-27 01:12:00,42.6,40.8,29.69,ESE,105,9.0,14.0,93,0.09,,,0.49,meteohub,2015-03-27 05:12:00,
2015-03-27 01:17:00,42.4,40.6,29.69,East,92,5.0,14.0,93,0.08,,,0.49,meteohub,2015-03-27 05:17:00,
2015-03-27 01:22:00,42.3,40.5,29.68,East,94,7.0,10.0,93,0.06,,,0.49,meteohub,2015-03-27 05:22:00,
2015-03-27 01:27:00,42.3,40.5,29.68,ENE,67,5.0,10.0,93,0.05,,,0.50,meteohub,2015-03-27 05:27:00,
2015-03-27 01:32:00,42.1,40.3,29.68,East,92,5.0,9.0,93,0.04,,,0.50,meteohub,2015-03-27 05:32:00,
2015-03-27 01:37:00,41.7,39.9,29.68,East,94,3.0,9.0,93,0.03,,,0.50,meteohub,2015-03-27 05:37:00,
2015-03-27 01:42:00,41.7,39.9,29.68,SE,133,4.0,10.0,93,0.03,,,0.50,meteohub,2015-03-27 05:42:00,
2015-03-27 01:47:00,41.5,39.7,29.68,ENE,70,7.0,10.0,93,0.02,,,0.50,meteohub,2015-03-27 05:47:00,
2015-03-27 01:52:00,41.4,39.6,29.67,ESE,108,3.0,10.0,93,0.02,,,0.50,meteohub,2015-03-27 05:52:00,
2015-03-27 01:57:00,41.4,39.6,29.67,East,90,6.0,10.0,93,0.02,,,0.50,meteohub,2015-03-27 05:57:00,
2015-03-27 02:02:00,41.2,39.4,29.66,ESE,102,2.0,10.0,93,0.01,,,0.50,meteohub,2015-03-27 06:02:00,
2015-03-27 02:07:00,41.0,39.2,29.66,East,88,3.0,7.0,93,0.01,,,0.50,meteohub,2015-03-27 06:07:00,
2015-03-27 02:12:00,40.8,39.0,29.66,East,100,6.0,7.0,93,0.01,,,0.50,meteohub,2015-03-27 06:12:00,
2015-03-27 02:17:00,40.6,38.8,29.66,ENE,73,2.0,8.0,93,0.01,,,0.50,meteohub,2015-03-27 06:17:00,
2015-03-27 02:22:00,40.6,38.8,29.66,East,101,0.0,8.0,93,0.00,,,0.50,meteohub,2015-03-27 06:22:00,
2015-03-27 02:27:00,40.5,38.7,29.66,East,99,6.0,8.0,93,0.00,,,0.50,meteohub,2015-03-27 06:27:00,
2015-03-27 02:32:00,40.5,38.7,29.67,East,80,2.0,8.0,93,0.00,,,0.50,meteohub,2015-03-27 06:32:00,
2015-03-27 02:37:00,40.5,38.7,29.67,ENE,76,0.0,7.0,93,0.00,,,0.50,meteohub,2015-03-27 06:37:00,
2015-03-27 02:42:00,40.5,38.7,29.67,East,85,0.0,7.0,93,0.00,,,0.50,meteohub,2015-03-27 06:42:00,
2015-03-27 02:47:00,40.5,38.7,29.68,East,80,5.0,7.0,93,0.00,,,0.50,meteohub,2015-03-27 06:47:00,
2015-03-27 02:52:00,40.5,38.7,29.67,East,100,2.0,7.0,93,0.00,,,0.50,meteohub,2015-03-27 06:52:00,
2015-03-27 02:57:00,40.3,38.5,29.67,ESE,106,3.0,8.0,93,0.00,,,0.50,meteohub,2015-03-27 06:57:00,
2015-03-27 03:02:00,40.3,38.5,29.66,ESE,102,0.0,8.0,93,0.00,,,0.50,meteohub,2015-03-27 07:02:00,
2015-03-27 03:07:00,40.1,38.3,29.66,East,88,5.0,5.0,93,0.00,,,0.50,meteohub,2015-03-27 07:07:00,
2015-03-27 03:12:00,39.9,38.1,29.66,ESE,112,2.0,5.0,93,0.00,,,0.50,meteohub,2015-03-27 07:12:00,
2015-03-27 03:17:00,39.9,38.1,29.67,ESE,102,3.0,5.0,93,0.00,,,0.50,meteohub,2015-03-27 07:17:00,
2015-03-27 03:22:00,39.7,37.9,29.66,NE,46,5.0,5.0,93,0.00,,,0.50,meteohub,2015-03-27 07:22:00,
2015-03-27 03:27:00,39.6,37.8,29.66,East,88,3.0,7.0,93,0.00,,,0.50,meteohub,2015-03-27 07:27:00,
2015-03-27 03:32:00,39.6,37.8,29.66,ESE,117,2.0,10.0,93,0.00,,,0.50,meteohub,2015-03-27 07:32:00,
2015-03-27 03:37:00,39.4,37.6,29.66,ESE,110,4.0,10.0,93,0.00,,,0.50,meteohub,2015-03-27 07:37:00,
2015-03-27 03:42:00,39.4,37.6,29.66,East,92,2.0,10.0,93,0.00,,,0.50,meteohub,2015-03-27 07:42:00,
2015-03-27 03:47:00,39.4,37.6,29.65,NE,55,5.0,8.0,93,0.00,,,0.50,meteohub,2015-03-27 07:47:00,
2015-03-27 03:52:00,39.4,37.6,29.66,ENE,57,3.0,8.0,93,0.00,,,0.50,meteohub,2015-03-27 07:52:00,
2015-03-27 03:57:00,39.0,37.2,29.67,NE,49,4.0,8.0,93,0.00,,,0.50,meteohub,2015-03-27 07:57:00,
2015-03-27 04:02:00,39.0,37.2,29.67,East,80,9.0,9.0,93,0.00,,,0.50,meteohub,2015-03-27 08:02:00,
2015-03-27 04:07:00,38.8,37.0,29.67,ENE,72,3.0,9.0,93,0.00,,,0.50,meteohub,2015-03-27 08:07:00,
2015-03-27 04:12:00,38.8,37.0,29.67,ESE,107,1.0,9.0,93,0.00,,,0.50,meteohub,2015-03-27 08:12:00,
2015-03-27 04:17:00,38.8,37.0,29.65,East,92,6.0,9.0,93,0.00,,,0.50,meteohub,2015-03-27 08:17:00,
2015-03-27 04:22:00,38.8,37.0,29.66,East,98,3.0,9.0,93,0.00,,,0.50,meteohub,2015-03-27 08:22:00,
2015-03-27 04:27:00,38.8,37.0,29.66,East,92,5.0,9.0,93,0.00,,,0.50,meteohub,2015-03-27 08:27:00,
2015-03-27 04:32:00,38.7,36.9,29.66,ENE,73,4.0,9.0,93,0.00,,,0.50,meteohub,2015-03-27 08:32:00,
2015-03-27 04:37:00,38.7,36.9,29.67,East,91,5.0,9.0,93,0.00,,,0.50,meteohub,2015-03-27 08:37:00,
2015-03-27 04:42:00,38.7,36.9,29.67,ENE,74,4.0,11.0,93,0.00,,,0.50,meteohub,2015-03-27 08:42:00,
2015-03-27 04:47:00,38.7,36.9,29.68,ENE,73,4.0,11.0,93,0.00,,,0.50,meteohub,2015-03-27 08:47:00,
2015-03-27 04:52:00,38.7,36.9,29.68,East,85,3.0,11.0,93,0.00,,,0.50,meteohub,2015-03-27 08:52:00,
2015-03-27 04:57:00,38.7,36.9,29.68,East,80,7.0,10.0,93,0.00,,,0.50,meteohub,2015-03-27 08:57:00,
2015-03-27 05:02:00,38.7,36.9,29.68,ESE,103,7.0,13.0,93,0.00,,,0.50,meteohub,2015-03-27 09:02:00,
2015-03-27 05:07:00,38.7,37.0,29.68,ENE,72,7.0,13.0,94,0.00,,,0.50,meteohub,2015-03-27 09:07:00,
2015-03-27 05:12:00,38.5,36.9,29.68,ENE,72,9.0,13.0,94,0.01,,,0.51,meteohub,2015-03-27 09:12:00,
2015-03-27 05:17:00,38.7,37.0,29.68,East,79,2.0,13.0,94,0.01,,,0.51,meteohub,2015-03-27 09:17:00,
2015-03-27 05:22:00,38.5,36.9,29.69,East,90,6.0,13.0,94,0.01,,,0.51,meteohub,2015-03-27 09:22:00,
2015-03-27 05:27:00,38.5,36.9,29.68,ENE,69,8.0,12.0,94,0.01,,,0.51,meteohub,2015-03-27 09:27:00,
2015-03-27 05:32:00,38.5,36.9,29.68,ENE,78,9.0,12.0,94,0.01,,,0.51,meteohub,2015-03-27 09:32:00,
2015-03-27 05:37:00,38.5,36.9,29.68,SE,145,5.0,12.0,94,0.01,,,0.51,meteohub,2015-03-27 09:37:00,
2015-03-27 05:42:00,38.3,36.5,29.70,East,88,3.0,11.0,93,0.01,,,0.51,meteohub,2015-03-27 09:42:00,
2015-03-27 05:47:00,38.3,36.5,29.69,ESE,103,4.0,11.0,93,0.01,,,0.51,meteohub,2015-03-27 09:47:00,
2015-03-27 05:52:00,38.3,36.5,29.69,East,85,5.0,10.0,93,0.01,,,0.51,meteohub,2015-03-27 09:52:00,
2015-03-27 05:57:00,38.1,36.3,29.70,ESE,103,4.0,12.0,93,0.01,,,0.51,meteohub,2015-03-27 09:57:00,
2015-03-27 06:02:00,38.1,36.3,29.70,ENE,71,8.0,12.0,93,0.01,,,0.51,meteohub,2015-03-27 10:02:00,
2015-03-27 06:07:00,38.1,36.3,29.69,ENE,77,7.0,14.0,93,0.00,,,0.51,meteohub,2015-03-27 10:07:00,
2015-03-27 06:12:00,37.9,36.3,29.68,ENE,63,7.0,14.0,94,0.00,,,0.51,meteohub,2015-03-27 10:12:00,
2015-03-27 06:17:00,37.9,36.3,29.68,East,80,5.0,14.0,94,0.00,,,0.51,meteohub,2015-03-27 10:17:00,
2015-03-27 06:22:00,37.9,36.3,29.70,ENE,77,7.0,14.0,94,0.00,,,0.51,meteohub,2015-03-27 10:22:00,
2015-03-27 06:27:00,37.9,36.3,29.70,ENE,60,3.0,14.0,94,0.00,,,0.51,meteohub,2015-03-27 10:27:00,
2015-03-27 06:32:00,37.9,36.3,29.71,ENE,71,5.0,14.0,94,0.00,,,0.51,meteohub,2015-03-27 10:32:00,
2015-03-27 06:37:00,37.9,36.3,29.71,East,88,5.0,11.0,94,0.00,,,0.51,meteohub,2015-03-27 10:37:00,
2015-03-27 06:42:00,37.9,36.3,29.71,ENE,75,1.0,11.0,94,0.00,,,0.51,meteohub,2015-03-27 10:42:00,
2015-03-27 06:47:00,37.9,36.3,29.72,ENE,63,5.0,11.0,94,0.00,,,0.51,meteohub,2015-03-27 10:47:00,
2015-03-27 06:52:00,37.9,36.3,29.73,ESE,104,8.0,11.0,94,0.00,,,0.51,meteohub,2015-03-27 10:52:00,
2015-03-27 06:57:00,37.9,36.3,29.73,ESE,103,2.0,14.0,94,0.00,,,0.51,meteohub,2015-03-27 10:57:00,
2015-03-27 07:02:00,37.9,36.3,29.73,East,88,6.0,14.0,94,0.01,,,0.52,meteohub,2015-03-27 11:02:00,
2015-03-27 07:07:00,37.9,36.3,29.73,East,92,9.0,14.0,94,0.01,,,0.52,meteohub,2015-03-27 11:07:00,
2015-03-27 07:12:00,37.8,36.1,29.73,ENE,70,3.0,12.0,94,0.01,,,0.52,meteohub,2015-03-27 11:12:00,
2015-03-27 07:17:00,37.8,36.1,29.74,East,92,5.0,12.0,94,0.01,,,0.52,meteohub,2015-03-27 11:17:00,
2015-03-27 07:22:00,37.8,36.1,29.74,East,81,9.0,13.0,94,0.01,,,0.52,meteohub,2015-03-27 11:22:00,
2015-03-27 07:27:00,37.8,36.1,29.75,East,92,6.0,13.0,94,0.01,,,0.52,meteohub,2015-03-27 11:27:00,
2015-03-27 07:32:00,37.8,36.1,29.75,ENE,71,10.0,13.0,94,0.01,,,0.52,meteohub,2015-03-27 11:32:00,
2015-03-27 07:37:00,37.9,36.3,29.75,ENE,65,4.0,11.0,94,0.01,,,0.52,meteohub,2015-03-27 11:37:00,
2015-03-27 07:42:00,37.9,36.3,29.75,ENE,75,7.0,11.0,94,0.02,,,0.53,meteohub,2015-03-27 11:42:00,
2015-03-27 07:47:00,37.9,36.3,29.75,East,97,6.0,17.0,94,0.02,,,0.53,meteohub,2015-03-27 11:47:00,
2015-03-27 07:52:00,37.9,36.3,29.75,ENE,71,10.0,17.0,94,0.02,,,0.53,meteohub,2015-03-27 11:52:00,
2015-03-27 07:57:00,37.9,36.3,29.74,East,101,9.0,17.0,94,0.01,,,0.53,meteohub,2015-03-27 11:57:00,
2015-03-27 08:02:00,37.9,36.3,29.74,SE,126,8.0,17.0,94,0.01,,,0.53,meteohub,2015-03-27 12:02:00,
2015-03-27 08:07:00,37.9,36.3,29.75,East,96,7.0,23.0,94,0.01,,,0.53,meteohub,2015-03-27 12:07:00,
2015-03-27 08:12:00,37.9,36.3,29.74,East,83,16.0,23.0,94,0.01,,,0.53,meteohub,2015-03-27 12:12:00,
2015-03-27 08:17:00,37.9,36.3,29.75,ENE,71,7.0,23.0,94,0.01,,,0.53,meteohub,2015-03-27 12:17:00,
2015-03-27 08:22:00,37.9,36.3,29.75,ESE,108,10.0,16.0,94,0.01,,,0.53,meteohub,2015-03-27 12:22:00,
2015-03-27 08:27:00,37.9,36.3,29.75,East,85,7.0,16.0,94,0.01,,,0.53,meteohub,2015-03-27 12:27:00,
2015-03-27 08:32:00,37.8,36.1,29.75,NE,46,8.0,15.0,94,0.01,,,0.53,meteohub,2015-03-27 12:32:00,
2015-03-27 08:37:00,37.9,36.3,29.76,ENE,78,8.0,16.0,94,0.00,,,0.53,meteohub,2015-03-27 12:37:00,
2015-03-27 08:42:00,37.9,36.3,29.75,East,94,7.0,16.0,94,0.01,,,0.54,meteohub,2015-03-27 12:42:00,
2015-03-27 08:47:00,37.9,36.3,29.76,ENE,75,9.0,16.0,94,0.01,,,0.54,meteohub,2015-03-27 12:47:00,
2015-03-27 08:52:00,37.9,36.3,29.77,ENE,63,10.0,20.0,94,0.01,,,0.54,meteohub,2015-03-27 12:52:00,
2015-03-27 08:57:00,37.9,36.3,29.75,ENE,71,5.0,20.0,94,0.01,,,0.54,meteohub,2015-03-27 12:57:00,
2015-03-27 09:02:00,37.9,36.3,29.75,East,100,5.0,20.0,94,0.01,,,0.54,meteohub,2015-03-27 13:02:00,
2015-03-27 09:07:00,37.9,36.3,29.75,ESE,111,9.0,16.0,94,0.01,,,0.54,meteohub,2015-03-27 13:07:00,
2015-03-27 09:12:00,37.9,36.3,29.76,East,82,7.0,16.0,94,0.01,,,0.54,meteohub,2015-03-27 13:12:00,
2015-03-27 09:17:00,37.9,36.3,29.76,East,94,5.0,16.0,94,0.01,,,0.54,meteohub,2015-03-27 13:17:00,
2015-03-27 09:22:00,37.9,36.3,29.76,ESE,103,1.0,13.0,94,0.01,,,0.54,meteohub,2015-03-27 13:22:00,
2015-03-27 09:27:00,37.9,36.3,29.76,East,97,8.0,13.0,94,0.01,,,0.54,meteohub,2015-03-27 13:27:00,
2015-03-27 09:32:00,37.9,36.3,29.75,SE,126,3.0,13.0,94,0.01,,,0.54,meteohub,2015-03-27 13:32:00,
2015-03-27 09:37:00,38.1,36.5,29.75,East,84,6.0,13.0,94,0.00,,,0.54,meteohub,2015-03-27 13:37:00,
2015-03-27 09:42:00,37.9,36.3,29.74,ESE,116,5.0,13.0,94,0.00,,,0.54,meteohub,2015-03-27 13:42:00,
2015-03-27 09:47:00,38.1,36.5,29.74,SE,133,4.0,14.0,94,0.00,,,0.54,meteohub,2015-03-27 13:47:00,
2015-03-27 09:52:00,38.1,36.5,29.75,East,90,6.0,14.0,94,0.00,,,0.54,meteohub,2015-03-27 13:52:00,
2015-03-27 09:57:00,38.1,36.5,29.75,ENE,60,8.0,15.0,94,0.00,,,0.54,meteohub,2015-03-27 13:57:00,
2015-03-27 10:02:00,38.1,36.5,29.76,ENE,72,5.0,15.0,94,0.00,,,0.54,meteohub,2015-03-27 14:02:00,
2015-03-27 10:07:00,38.1,36.5,29.75,ENE,59,3.0,12.0,94,0.00,,,0.54,meteohub,2015-03-27 14:07:00,
2015-03-27 10:12:00,38.1,36.5,29.77,ENE,64,5.0,12.0,94,0.00,,,0.54,meteohub,2015-03-27 14:12:00,
2015-03-27 10:17:00,38.1,36.5,29.76,ENE,60,5.0,12.0,94,0.00,,,0.54,meteohub,2015-03-27 14:17:00,
2015-03-27 10:22:00,38.1,36.5,29.75,SE,130,6.0,11.0,94,0.00,,,0.54,meteohub,2015-03-27 14:22:00,
2015-03-27 10:27:00,38.1,36.3,29.76,East,80,3.0,11.0,93,0.00,,,0.54,meteohub,2015-03-27 14:27:00,
2015-03-27 10:32:00,38.3,36.5,29.76,NE,55,5.0,11.0,93,0.00,,,0.54,meteohub,2015-03-27 14:32:00,
2015-03-27 10:37:00,38.5,36.9,29.76,NE,50,3.0,10.0,94,0.00,,,0.54,meteohub,2015-03-27 14:37:00,
2015-03-27 10:42:00,38.7,37.0,29.77,East,82,5.0,12.0,94,0.00,,,0.54,meteohub,2015-03-27 14:42:00,
2015-03-27 10:47:00,38.8,37.2,29.76,SE,127,3.0,12.0,94,0.00,,,0.54,meteohub,2015-03-27 14:47:00,
2015-03-27 10:52:00,38.8,37.2,29.76,ESE,118,0.0,12.0,94,0.00,,,0.54,meteohub,2015-03-27 14:52:00,
2015-03-27 10:57:00,38.7,37.0,29.76,ENE,74,4.0,10.0,94,0.00,,,0.54,meteohub,2015-03-27 14:57:00,
2015-03-27 11:02:00,38.7,37.0,29.77,ENE,77,4.0,8.0,94,0.00,,,0.54,meteohub,2015-03-27 15:02:00,
2015-03-27 11:07:00,38.7,37.0,29.75,ESE,111,2.0,7.0,94,0.00,,,0.54,meteohub,2015-03-27 15:07:00,
2015-03-27 11:12:00,38.7,37.0,29.75,ESE,103,5.0,8.0,94,0.00,,,0.54,meteohub,2015-03-27 15:12:00,
2015-03-27 11:17:00,38.7,37.0,29.75,SE,127,3.0,8.0,94,0.00,,,0.54,meteohub,2015-03-27 15:17:00,
2015-03-27 11:22:00,38.7,37.0,29.75,East,80,1.0,8.0,94,0.00,,,0.54,meteohub,2015-03-27 15:22:00,
2015-03-27 11:27:00,38.7,37.0,29.75,ESE,111,8.0,8.0,94,0.00,,,0.54,meteohub,2015-03-27 15:27:00,
2015-03-27 11:32:00,38.7,37.0,29.75,East,82,8.0,11.0,94,0.00,,,0.54,meteohub,2015-03-27 15:32:00,
2015-03-27 11:37:00,38.7,37.0,29.75,ENE,63,3.0,11.0,94,0.00,,,0.54,meteohub,2015-03-27 15:37:00,
2015-03-27 11:42:00,38.5,36.9,29.75,North,5,4.0,10.0,94,0.00,,,0.54,meteohub,2015-03-27 15:42:00,
2015-03-27 11:47:00,38.5,36.9,29.76,East,83,1.0,9.0,94,0.00,,,0.54,meteohub,2015-03-27 15:47:00,
2015-03-27 11:52:00,38.5,36.7,29.76,East,84,3.0,9.0,93,0.00,,,0.54,meteohub,2015-03-27 15:52:00,
2015-03-27 11:57:00,38.5,36.7,29.75,East,98,5.0,10.0,93,0.00,,,0.54,meteohub,2015-03-27 15:57:00,
2015-03-27 12:02:00,38.5,36.7,29.73,East,80,5.0,10.0,93,0.00,,,0.54,meteohub,2015-03-27 16:02:00,
2015-03-27 12:07:00,38.5,36.9,29.74,East,84,6.0,8.0,94,0.00,,,0.54,meteohub,2015-03-27 16:07:00,
2015-03-27 12:12:00,38.5,36.9,29.75,ENE,75,4.0,8.0,94,0.00,,,0.54,meteohub,2015-03-27 16:12:00,
2015-03-27 12:17:00,38.5,36.9,29.75,ENE,65,3.0,8.0,94,0.00,,,0.54,meteohub,2015-03-27 16:17:00,
2015-03-27 12:22:00,38.5,36.7,29.75,ENE,69,4.0,9.0,93,0.00,,,0.54,meteohub,2015-03-27 16:22:00,
2015-03-27 12:27:00,38.7,37.0,29.74,ENE,78,4.0,9.0,94,0.00,,,0.54,meteohub,2015-03-27 16:27:00,
2015-03-27 12:32:00,38.7,36.9,29.74,ENE,77,3.0,9.0,93,0.00,,,0.54,meteohub,2015-03-27 16:32:00,
2015-03-27 12:37:00,38.7,36.9,29.73,ESE,103,8.0,9.0,93,0.00,,,0.54,meteohub,2015-03-27 16:37:00,
2015-03-27 12:42:00,38.7,36.9,29.73,East,100,3.0,9.0,93,0.00,,,0.54,meteohub,2015-03-27 16:42:00,
2015-03-27 12:47:00,38.8,37.2,29.73,ENE,74,2.0,9.0,94,0.00,,,0.54,meteohub,2015-03-27 16:47:00,
2015-03-27 12:52:00,39.0,37.4,29.73,ESE,120,3.0,9.0,94,0.00,,,0.54,meteohub,2015-03-27 16:52:00,
2015-03-27 12:57:00,39.2,37.4,29.73,East,101,2.0,9.0,93,0.00,,,0.54,meteohub,2015-03-27 16:57:00,
2015-03-27 13:02:00,39.4,37.6,29.73,NE,46,4.0,8.0,93,0.00,,,0.54,meteohub,2015-03-27 17:02:00,
2015-03-27 13:07:00,39.2,37.4,29.73,ESE,114,2.0,8.0,93,0.00,,,0.54,meteohub,2015-03-27 17:07:00,
2015-03-27 13:12:00,39.2,37.4,29.74,ENE,66,2.0,8.0,93,0.00,,,0.54,meteohub,2015-03-27 17:12:00,
2015-03-27 13:17:00,39.2,37.4,29.74,East,91,0.0,8.0,93,0.00,,,0.54,meteohub,2015-03-27 17:17:00,
2015-03-27 13:22:00,39.2,37.4,29.73,ENE,73,1.0,8.0,93,0.00,,,0.54,meteohub,2015-03-27 17:22:00,
2015-03-27 13:27:00,39.0,37.2,29.73,East,91,6.0,7.0,93,0.00,,,0.54,meteohub,2015-03-27 17:27:00,
2015-03-27 13:32:00,39.0,37.2,29.73,ESE,122,4.0,7.0,93,0.00,,,0.54,meteohub,2015-03-27 17:32:00,